Time;durP1;ratioP1;P1;durP2;ratioP2;P2;SDS_P1;SDS_P2;PMS_P1;PMS_P2;Temp;Humidity;BMP_temperature;BMP_pressure;BME280_temperature;BME280_humidity;BME280_pressure;Samples;Min_cycle;Max_cycle;Signal;HPM_P1;HPM_P2
2021/11/17 02:26:40;;;;;;;35.00;12.68;;;;;;;;;;4977996;28;20096;-68
2021/11/17 02:29:05;;;;;;;37.83;13.85;;;;;;;;;;4991009;28;20029;-68
2021/11/17 02:31:37;;;;;;;36.07;14.27;;;;;;;;;;4991802;28;20022;-68
2021/11/17 02:34:06;;;;;;;39.25;14.75;;;;;;;;;;4991609;28;20300;-68
2021/11/17 02:36:32;;;;;;;36.53;12.80;;;;;;;;;;4986138;28;20010;-67
2021/11/17 02:39:17;;;;;;;40.80;13.75;;;;;;;;;;4991038;28;20494;-68
2021/11/17 02:41:49;;;;;;;37.17;12.95;;;;;;;;;;4985099;28;20535;-68
2021/11/17 02:44:14;;;;;;;38.95;12.90;;;;;;;;;;4991458;28;20022;-68
2021/11/17 02:46:49;;;;;;;38.85;13.10;;;;;;;;;;4983037;28;20660;-69
2021/11/17 02:49:24;;;;;;;34.85;12.95;;;;;;;;;;4989872;28;20446;-67
2021/11/17 02:51:52;;;;;;;39.75;13.55;;;;;;;;;;4972140;28;20042;-68
2021/11/17 02:54:17;;;;;;;39.40;13.35;;;;;;;;;;4988833;28;20026;-68
2021/11/17 02:56:52;;;;;;;40.87;13.80;;;;;;;;;;4990568;28;20042;-69
2021/11/17 02:59:29;;;;;;;34.10;13.35;;;;;;;;;;4979624;28;20281;-67
2021/11/17 03:02:17;;;;;;;43.10;13.90;;;;;;;;;;4990017;28;20030;-67
2021/11/17 03:04:42;;;;;;;36.97;13.85;;;;;;;;;;4988858;28;20424;-69
2021/11/17 03:07:16;;;;;;;32.63;14.73;;;;;;;;;;4987382;28;20030;-68
2021/11/17 03:09:58;;;;;;;41.00;14.32;;;;;;;;;;4982479;28;20022;-69
2021/11/17 03:12:25;;;;;;;33.08;14.18;;;;;;;;;;4990745;28;20018;-69
2021/11/17 03:14:57;;;;;;;41.80;15.55;;;;;;;;;;4988979;28;20113;-68
2021/11/17 03:17:43;;;;;;;47.45;17.10;;;;;;;;;;4987517;28;20025;-69
2021/11/17 03:20:25;;;;;;;44.35;15.25;;;;;;;;;;4990568;28;20026;-68
2021/11/17 03:22:57;;;;;;;36.20;14.93;;;;;;;;;;4990286;28;20054;-68
2021/11/17 03:25:26;;;;;;;44.63;15.55;;;;;;;;;;4971967;28;20019;-68
2021/11/17 03:28:01;;;;;;;36.35;14.32;;;;;;;;;;4976953;28;20019;-68
2021/11/17 03:30:36;;;;;;;35.30;13.52;;;;;;;;;;4987811;28;20113;-68
2021/11/17 03:33:11;;;;;;;38.92;15.18;;;;;;;;;;4989822;28;20069;-69
2021/11/17 03:35:57;;;;;;;34.05;14.35;;;;;;;;;;4987965;28;20024;-68
2021/11/17 03:38:32;;;;;;;38.75;13.40;;;;;;;;;;4990715;28;20034;-68
2021/11/17 03:41:17;;;;;;;47.58;15.15;;;;;;;;;;4990684;28;20030;-69
2021/11/17 03:44:02;;;;;;;38.00;14.23;;;;;;;;;;4987154;28;20033;-68
2021/11/17 03:46:49;;;;;;;39.97;15.93;;;;;;;;;;4976191;28;20085;-67
2021/11/17 03:49:22;;;;;;;42.53;15.68;;;;;;;;;;4990765;28;20034;-68
2021/11/17 03:52:01;;;;;;;50.38;15.27;;;;;;;;;;4991390;28;20022;-68
2021/11/17 03:54:33;;;;;;;38.40;14.80;;;;;;;;;;4993783;28;20058;-68
2021/11/17 03:57:20;;;;;;;46.65;16.88;;;;;;;;;;4994408;28;20072;-68
2021/11/17 04:00:10;;;;;;;42.83;15.18;;;;;;;;;;4993172;28;20056;-68
2021/11/17 04:02:51;;;;;;;43.95;15.40;;;;;;;;;;4987859;28;20019;-69
2021/11/17 04:05:32;;;;;;;44.92;16.15;;;;;;;;;;4978175;28;20026;-69
2021/11/17 04:08:05;;;;;;;49.75;15.90;;;;;;;;;;4982001;28;20060;-66
2021/11/17 04:10:54;;;;;;;41.17;16.42;;;;;;;;;;4994364;28;20117;-68
2021/11/17 04:13:25;;;;;;;53.42;15.82;;;;;;;;;;4992180;28;20017;-68
2021/11/17 04:16:07;;;;;;;43.15;14.80;;;;;;;;;;4988997;28;20025;-68
2021/11/17 04:18:33;;;;;;;50.63;17.40;;;;;;;;;;4994338;28;20023;-68
2021/11/17 04:21:33;;;;;;;54.08;17.73;;;;;;;;;;4993746;28;20053;-68
2021/11/17 04:24:05;;;;;;;46.85;14.23;;;;;;;;;;4979761;28;20076;-67
2021/11/17 04:26:44;;;;;;;51.70;15.75;;;;;;;;;;4993695;28;20026;-68
2021/11/17 04:29:19;;;;;;;52.20;17.42;;;;;;;;;;4993519;28;20022;-69
2021/11/17 04:31:57;;;;;;;44.95;16.20;;;;;;;;;;4993280;28;20018;-67
2021/11/17 04:34:36;;;;;;;47.42;15.50;;;;;;;;;;4982094;28;20019;-69
2021/11/17 04:37:40;;;;;;;48.30;16.58;;;;;;;;;;4991172;28;20037;-68
2021/11/17 04:40:12;;;;;;;50.88;16.15;;;;;;;;;;4990743;28;20491;-66
2021/11/17 04:42:48;;;;;;;49.38;16.08;;;;;;;;;;4990258;28;20068;-69
2021/11/17 04:45:31;;;;;;;47.13;15.63;;;;;;;;;;4975707;28;20026;-69
2021/11/17 04:48:07;;;;;;;46.03;16.38;;;;;;;;;;4986942;28;20022;-68
2021/11/17 04:50:45;;;;;;;41.90;16.23;;;;;;;;;;4993680;28;20077;-69
2021/11/17 04:53:29;;;;;;;53.05;15.73;;;;;;;;;;4984078;28;20014;-68
2021/11/17 04:56:05;;;;;;;43.88;17.90;;;;;;;;;;4985763;28;20026;-67
2021/11/17 04:58:44;;;;;;;46.85;16.65;;;;;;;;;;4993154;28;20105;-69
2021/11/17 05:01:49;;;;;;;51.92;16.67;;;;;;;;;;4992849;28;20037;-67
2021/11/17 05:04:33;;;;;;;45.88;16.13;;;;;;;;;;4988831;28;20399;-68
2021/11/17 05:07:05;;;;;;;47.92;15.75;;;;;;;;;;4981579;28;20033;-68
2021/11/17 05:09:50;;;;;;;52.83;16.63;;;;;;;;;;4993196;28;20102;-68
2021/11/17 05:12:25;;;;;;;47.03;16.88;;;;;;;;;;4992198;28;20076;-68
2021/11/17 05:15:00;;;;;;;48.30;15.77;;;;;;;;;;4982857;28;20475;-68
2021/11/17 05:17:44;;;;;;;51.03;17.00;;;;;;;;;;4991847;28;20054;-68
2021/11/17 05:20:18;;;;;;;45.67;15.55;;;;;;;;;;4990122;28;20734;-68
2021/11/17 05:23:06;;;;;;;52.60;18.00;;;;;;;;;;4992889;28;20637;-68
2021/11/17 05:25:38;;;;;;;56.95;18.35;;;;;;;;;;4991856;28;20490;-68
2021/11/17 05:28:29;;;;;;;54.55;18.20;;;;;;;;;;4979578;28;20121;-67
2021/11/17 05:31:18;;;;;;;49.08;15.90;;;;;;;;;;4992621;28;20546;-68
2021/11/17 05:34:11;;;;;;;38.42;15.57;;;;;;;;;;4991710;28;20498;-67
2021/11/17 05:37:00;;;;;;;51.30;17.45;;;;;;;;;;4988546;28;20587;-68
2021/11/17 05:39:33;;;;;;;43.28;16.52;;;;;;;;;;4992060;28;20026;-69
2021/11/17 05:42:10;;;;;;;45.53;16.02;;;;;;;;;;4992786;28;20060;-69
2021/11/17 05:44:52;;;;;;;48.63;16.75;;;;;;;;;;4982943;28;20033;-68
2021/11/17 05:47:47;;;;;;;41.88;15.15;;;;;;;;;;4992605;28;20384;-68
2021/11/17 05:50:17;;;;;;;46.05;15.52;;;;;;;;;;4967398;28;20383;-68
2021/11/17 05:52:45;;;;;;;38.40;15.18;;;;;;;;;;4984368;28;20364;-66
2021/11/17 05:55:18;;;;;;;46.10;16.48;;;;;;;;;;4987293;28;20159;-69
2021/11/17 05:57:43;;;;;;;49.33;15.95;;;;;;;;;;4991004;28;20697;-68
2021/11/17 06:00:14;;;;;;;39.22;14.20;;;;;;;;;;4989853;28;20122;-68
2021/11/17 06:02:41;;;;;;;19.90;4.50;;;;;;;;;;4981640;28;20321;-69
2021/11/17 06:05:06;;;;;;;44.33;16.10;;;;;;;;;;4988412;28;20018;-68
2021/11/17 06:07:31;;;;;;;38.80;13.07;;;;;;;;;;4990569;28;20023;-68
2021/11/17 06:10:04;;;;;;;45.00;13.63;;;;;;;;;;4991153;28;20737;-67
2021/11/17 06:12:29;;;;;;;38.95;13.55;;;;;;;;;;4990833;28;20430;-67
2021/11/17 06:14:55;;;;;;;45.77;13.97;;;;;;;;;;4984966;28;20105;-67
2021/11/17 06:17:21;;;;;;;48.17;16.23;;;;;;;;;;4992047;28;20269;-67
2021/11/17 06:19:48;;;;;;;39.33;12.13;;;;;;;;;;4991720;28;20297;-67
2021/11/17 06:22:15;;;;;;;39.08;11.20;;;;;;;;;;4985775;28;20104;-67
2021/11/17 06:24:40;;;;;;;37.10;12.27;;;;;;;;;;4992068;28;20026;-68
2021/11/17 06:27:07;;;;;;;35.25;13.55;;;;;;;;;;4986641;28;20487;-67
2021/11/17 06:29:37;;;;;;;40.58;12.88;;;;;;;;;;4984398;28;20019;-67
2021/11/17 06:32:03;;;;;;;52.40;16.77;;;;;;;;;;4982097;28;20029;-68
2021/11/17 06:34:33;;;;;;;34.83;12.98;;;;;;;;;;4982893;28;20031;-68
2021/11/17 06:36:59;;;;;;;31.40;10.15;;;;;;;;;;4970964;28;20427;-68
2021/11/17 06:39:25;;;;;;;41.10;10.45;;;;;;;;;;4974855;28;20510;-68
2021/11/17 06:41:50;;;;;;;26.10;8.88;;;;;;;;;;4974297;28;20022;-67
2021/11/17 06:44:15;;;;;;;38.63;11.95;;;;;;;;;;4980704;28;20021;-68
2021/11/17 06:46:40;;;;;;;31.58;9.55;;;;;;;;;;4989947;28;20081;-68
2021/11/17 06:49:06;;;;;;;26.10;8.60;;;;;;;;;;4990526;28;20022;-67
2021/11/17 06:51:31;;;;;;;44.20;15.30;;;;;;;;;;4990386;28;20324;-67
2021/11/17 06:53:56;;;;;;;39.35;12.45;;;;;;;;;;4987828;28;20117;-67
2021/11/17 06:56:22;;;;;;;45.87;15.40;;;;;;;;;;4984252;28;20020;-67
2021/11/17 06:58:47;;;;;;;37.70;12.52;;;;;;;;;;4990114;28;20669;-68
2021/11/17 07:01:13;;;;;;;52.45;16.13;;;;;;;;;;4985725;28;20034;-67
2021/11/17 07:03:39;;;;;;;53.40;17.17;;;;;;;;;;4991463;28;20034;-67
2021/11/17 07:06:04;;;;;;;39.28;13.30;;;;;;;;;;4991291;28;20857;-67
2021/11/17 07:08:29;;;;;;;43.65;16.48;;;;;;;;;;4991302;28;20050;-68
2021/11/17 07:10:55;;;;;;;45.10;15.65;;;;;;;;;;4973826;28;20379;-67
2021/11/17 07:13:20;;;;;;;40.80;12.68;;;;;;;;;;4980155;28;20035;-67
2021/11/17 07:15:45;;;;;;;40.17;12.20;;;;;;;;;;4990865;28;20023;-67
2021/11/17 07:18:10;;;;;;;45.83;13.88;;;;;;;;;;4984960;28;20034;-67
2021/11/17 07:20:36;;;;;;;55.33;16.77;;;;;;;;;;4990065;28;20022;-68
2021/11/17 07:23:02;;;;;;;50.63;16.02;;;;;;;;;;4994373;28;20034;-68
2021/11/17 07:25:28;;;;;;;37.75;13.90;;;;;;;;;;4990738;28;20088;-67
2021/11/17 07:27:55;;;;;;;25.58;8.35;;;;;;;;;;4995127;28;20042;-67
2021/11/17 07:30:22;;;;;;;37.35;13.35;;;;;;;;;;4989491;28;20439;-68
2021/11/17 07:32:48;;;;;;;45.03;14.10;;;;;;;;;;5005922;28;20487;-67
2021/11/17 07:35:13;;;;;;;40.42;14.68;;;;;;;;;;5001219;28;20494;-68
2021/11/17 07:37:39;;;;;;;43.25;14.77;;;;;;;;;;4982528;28;20018;-68
2021/11/17 07:40:06;;;;;;;35.47;11.25;;;;;;;;;;4990532;28;20026;-68
2021/11/17 07:42:31;;;;;;;46.60;15.30;;;;;;;;;;4989282;28;20130;-67
2021/11/17 07:44:56;;;;;;;34.70;13.45;;;;;;;;;;4990075;28;20101;-67
2021/11/17 07:47:21;;;;;;;29.15;9.77;;;;;;;;;;4982902;28;20150;-67
2021/11/17 07:49:47;;;;;;;19.25;7.88;;;;;;;;;;4990149;28;20058;-68
2021/11/17 07:52:12;;;;;;;37.93;12.83;;;;;;;;;;4989705;28;20050;-67
2021/11/17 07:54:37;;;;;;;44.35;12.48;;;;;;;;;;4990776;28;20630;-67
2021/11/17 07:57:03;;;;;;;30.00;7.30;;;;;;;;;;4989317;28;20018;-67
2021/11/17 07:59:30;;;;;;;38.40;13.13;;;;;;;;;;4989489;28;20274;-67
2021/11/17 08:01:58;;;;;;;38.28;12.52;;;;;;;;;;4988707;28;20030;-68
2021/11/17 08:04:24;;;;;;;29.88;11.48;;;;;;;;;;4990475;28;20475;-67
2021/11/17 08:06:51;;;;;;;37.53;13.07;;;;;;;;;;4990602;28;20033;-68
2021/11/17 08:09:17;;;;;;;23.75;8.70;;;;;;;;;;4989979;28;20442;-67
2021/11/17 08:11:42;;;;;;;22.38;8.23;;;;;;;;;;4990171;28;20110;-68
2021/11/17 08:14:08;;;;;;;32.15;11.43;;;;;;;;;;4974410;28;20058;-67
2021/11/17 08:16:34;;;;;;;15.45;6.05;;;;;;;;;;4988981;28;20054;-67
2021/11/17 08:18:59;;;;;;;23.52;5.38;;;;;;;;;;4989891;28;20022;-67
2021/11/17 08:21:24;;;;;;;21.20;8.27;;;;;;;;;;4990081;28;20030;-67
2021/11/17 08:23:50;;;;;;;32.15;11.18;;;;;;;;;;4974331;28;20739;-67
2021/11/17 08:26:16;;;;;;;26.48;10.90;;;;;;;;;;4986752;28;20169;-64
2021/11/17 08:28:41;;;;;;;30.25;10.65;;;;;;;;;;4986338;28;20058;-68
2021/11/17 08:31:08;;;;;;;26.25;10.57;;;;;;;;;;4989398;28;20101;-67
2021/11/17 08:33:33;;;;;;;25.92;10.40;;;;;;;;;;4987390;28;20046;-67
2021/11/17 08:36:00;;;;;;;31.42;11.85;;;;;;;;;;4979662;28;20053;-69
2021/11/17 08:38:25;;;;;;;34.22;11.73;;;;;;;;;;4992371;28;20357;-67
2021/11/17 08:40:52;;;;;;;22.60;8.27;;;;;;;;;;4992133;28;20041;-67
2021/11/17 08:43:18;;;;;;;27.63;12.13;;;;;;;;;;4993716;28;20387;-67
2021/11/17 08:45:44;;;;;;;24.13;10.05;;;;;;;;;;4994209;28;20026;-67
2021/11/17 08:48:11;;;;;;;22.48;7.95;;;;;;;;;;4988457;28;20436;-67
2021/11/17 08:50:37;;;;;;;25.45;10.18;;;;;;;;;;4992949;28;20065;-67
2021/11/17 08:53:03;;;;;;;31.05;11.35;;;;;;;;;;4993630;28;20073;-67
2021/11/17 08:55:29;;;;;;;31.52;10.50;;;;;;;;;;4981835;28;20053;-67
2021/11/17 08:57:55;;;;;;;20.60;7.57;;;;;;;;;;4992041;28;20034;-67
2021/11/17 09:00:22;;;;;;;17.48;7.07;;;;;;;;;;4992962;28;20478;-67
2021/11/17 09:02:48;;;;;;;31.05;11.25;;;;;;;;;;4993311;28;20034;-67
2021/11/17 09:05:15;;;;;;;11.23;5.10;;;;;;;;;;4993691;28;20491;-68
2021/11/17 09:07:41;;;;;;;13.80;5.63;;;;;;;;;;4992735;28;20026;-68
2021/11/17 09:10:08;;;;;;;23.17;8.75;;;;;;;;;;4992823;28;20384;-67
2021/11/17 09:12:33;;;;;;;16.15;7.50;;;;;;;;;;4988855;28;20101;-69
2021/11/17 09:14:59;;;;;;;24.05;7.45;;;;;;;;;;4990553;28;20551;-67
2021/11/17 09:17:24;;;;;;;21.67;7.50;;;;;;;;;;4992626;28;20030;-68
2021/11/17 09:19:49;;;;;;;24.92;9.18;;;;;;;;;;4992833;28;20312;-67
2021/11/17 09:22:14;;;;;;;24.25;9.23;;;;;;;;;;4992563;28;20069;-67
2021/11/17 09:24:39;;;;;;;16.73;6.90;;;;;;;;;;4991368;28;20034;-68
2021/11/17 09:27:05;;;;;;;13.80;5.32;;;;;;;;;;4992099;28;20026;-67
2021/11/17 09:29:31;;;;;;;23.30;9.95;;;;;;;;;;4975008;28;20015;-68
2021/11/17 09:31:56;;;;;;;24.33;8.85;;;;;;;;;;4990184;28;20039;-68
2021/11/17 09:34:21;;;;;;;22.90;9.30;;;;;;;;;;4993028;28;20014;-67
2021/11/17 09:36:47;;;;;;;19.03;8.40;;;;;;;;;;4992517;28;20034;-68
2021/11/17 09:39:13;;;;;;;20.67;7.03;;;;;;;;;;4981874;28;20278;-67
2021/11/17 09:41:40;;;;;;;13.15;5.13;;;;;;;;;;5012037;28;20394;-67
2021/11/17 09:44:09;;;;;;;13.07;5.97;;;;;;;;;;4999613;28;20022;-68
2021/11/17 09:46:36;;;;;;;19.13;8.23;;;;;;;;;;4984057;28;20042;-68
2021/11/17 09:49:04;;;;;;;16.27;6.05;;;;;;;;;;4978201;28;20031;-67
2021/11/17 09:51:32;;;;;;;19.45;7.55;;;;;;;;;;4992270;28;20445;-68
2021/11/17 09:54:03;;;;;;;16.50;7.32;;;;;;;;;;4992777;28;20019;-67
2021/11/17 09:56:37;;;;;;;20.08;8.07;;;;;;;;;;4985082;28;20096;-67
2021/11/17 09:59:08;;;;;;;17.73;6.78;;;;;;;;;;4980119;28;20034;-69
2021/11/17 10:01:35;;;;;;;24.05;9.88;;;;;;;;;;4984606;28;20117;-67
2021/11/17 10:04:21;;;;;;;22.67;8.63;;;;;;;;;;4991882;28;20032;-66
2021/11/17 10:15:00;;;;;;;15.43;5.57;;;;;;;;;;4992002;28;20029;-67
2021/11/17 10:17:34;;;;;;;7.90;3.28;;;;;;;;;;4991902;28;20117;-67
2021/11/17 10:20:05;;;;;;;19.23;8.15;;;;;;;;;;4985790;28;20022;-67
2021/11/17 10:22:30;;;;;;;14.10;4.70;;;;;;;;;;4990292;28;20022;-68
2021/11/17 10:25:04;;;;;;;23.37;7.97;;;;;;;;;;4991611;28;20030;-67
2021/11/17 10:27:30;;;;;;;10.23;4.88;;;;;;;;;;4991660;28;20297;-67
2021/11/17 10:29:57;;;;;;;14.27;5.88;;;;;;;;;;4976327;28;20062;-67
2021/11/17 10:32:25;;;;;;;6.53;3.40;;;;;;;;;;4981988;28;20526;-67
2021/11/17 10:35:11;;;;;;;15.50;6.78;;;;;;;;;;4991699;28;20077;-68
2021/11/17 10:37:38;;;;;;;18.60;6.82;;;;;;;;;;4991343;28;20393;-65
2021/11/17 10:40:12;;;;;;;19.58;6.57;;;;;;;;;;4988405;28;20394;-68
2021/11/17 10:42:38;;;;;;;18.88;7.82;;;;;;;;;;4991304;28;20038;-67
2021/11/17 10:45:09;;;;;;;18.63;7.72;;;;;;;;;;4991401;28;20048;-67
2021/11/17 10:47:37;;;;;;;13.63;5.82;;;;;;;;;;4991451;28;20088;-67
2021/11/17 10:50:20;;;;;;;12.45;3.13;;;;;;;;;;4990481;28;20049;-67
2021/11/17 10:52:56;;;;;;;23.25;8.85;;;;;;;;;;4989970;28;20026;-67
2021/11/17 10:55:27;;;;;;;15.05;6.88;;;;;;;;;;4985623;28;20048;-68
2021/11/17 10:57:52;;;;;;;16.35;6.35;;;;;;;;;;4990205;28;20037;-67
2021/11/17 11:00:20;;;;;;;17.23;7.05;;;;;;;;;;4986244;28;20030;-67
2021/11/17 11:02:47;;;;;;;9.30;3.55;;;;;;;;;;4989636;28;20042;-65
2021/11/17 11:05:15;;;;;;;18.27;5.68;;;;;;;;;;4990732;28;20018;-64
2021/11/17 11:07:52;;;;;;;9.40;3.75;;;;;;;;;;4983371;28;20058;-67
2021/11/17 11:10:21;;;;;;;11.82;4.97;;;;;;;;;;4990278;28;20046;-68
2021/11/17 11:12:47;;;;;;;18.48;7.35;;;;;;;;;;4991342;28;20422;-68
2021/11/17 11:15:17;;;;;;;17.35;7.55;;;;;;;;;;4989519;28;20026;-67
2021/11/17 11:17:45;;;;;;;23.53;9.07;;;;;;;;;;4980424;28;20030;-68
2021/11/17 11:20:16;;;;;;;18.50;5.30;;;;;;;;;;4989171;28;20030;-67
2021/11/17 11:23:00;;;;;;;11.90;4.93;;;;;;;;;;4988381;28;20034;-67
2021/11/17 11:25:34;;;;;;;12.32;5.38;;;;;;;;;;4989782;28;20030;-67
2021/11/17 11:28:18;;;;;;;17.52;5.85;;;;;;;;;;4989242;28;20050;-67
2021/11/17 11:30:43;;;;;;;13.15;4.97;;;;;;;;;;4982866;28;20026;-67
2021/11/17 11:33:27;;;;;;;18.35;6.95;;;;;;;;;;4990825;28;20030;-67
2021/11/17 11:36:07;;;;;;;11.95;3.85;;;;;;;;;;4980148;28;20030;-67
2021/11/17 11:38:33;;;;;;;15.07;6.25;;;;;;;;;;5000507;28;20117;-67
2021/11/17 11:40:58;;;;;;;18.70;6.75;;;;;;;;;;4987620;28;20046;-67
2021/11/17 11:43:25;;;;;;;18.50;8.05;;;;;;;;;;4977810;28;20034;-67
2021/11/17 11:45:51;;;;;;;15.00;7.32;;;;;;;;;;4982785;28;20265;-68
2021/11/17 11:48:26;;;;;;;17.98;7.45;;;;;;;;;;4990637;28;20026;-67
2021/11/17 11:50:54;;;;;;;17.48;7.85;;;;;;;;;;4990351;28;20023;-67
2021/11/17 11:53:48;;;;;;;15.13;6.55;;;;;;;;;;4988352;28;20014;-67
2021/11/17 11:56:21;;;;;;;17.52;6.78;;;;;;;;;;4989171;28;20042;-68
2021/11/17 11:58:46;;;;;;;24.08;7.03;;;;;;;;;;4990748;28;20026;-67
2021/11/17 12:01:22;;;;;;;19.48;5.70;;;;;;;;;;4982410;28;20105;-67
2021/11/17 12:04:00;;;;;;;16.77;6.85;;;;;;;;;;4986617;28;20539;-67
2021/11/17 12:06:45;;;;;;;18.17;6.30;;;;;;;;;;4990337;28;20387;-67
2021/11/17 12:09:22;;;;;;;19.90;7.65;;;;;;;;;;4989923;28;20110;-67
2021/11/17 12:11:51;;;;;;;16.35;7.25;;;;;;;;;;4987448;28;20022;-67
2021/11/17 12:14:51;;;;;;;21.17;6.95;;;;;;;;;;4974832;28;20010;-67
2021/11/17 12:17:21;;;;;;;24.20;8.43;;;;;;;;;;4989966;28;20046;-68
2021/11/17 12:19:52;;;;;;;18.65;7.18;;;;;;;;;;4993894;28;20101;-68
2021/11/17 12:22:17;;;;;;;;;;;;;;;;;;4988743;28;20172;-68
2021/11/17 12:24:47;;;;;;;20.60;7.65;;;;;;;;;;4977593;28;19996;-67
2021/11/17 12:27:15;;;;;;;15.10;6.95;;;;;;;;;;4993911;28;20030;-68
2021/11/17 12:29:57;;;;;;;19.98;7.95;;;;;;;;;;4993030;28;20466;-68
2021/11/17 12:32:25;;;;;;;13.35;5.45;;;;;;;;;;4991783;28;20652;-67
2021/11/17 12:34:56;;;;;;;16.45;6.88;;;;;;;;;;4993285;28;20023;-68
2021/11/17 12:37:27;;;;;;;18.98;7.90;;;;;;;;;;4993618;28;20479;-66
2021/11/17 12:39:58;;;;;;;16.45;6.85;;;;;;;;;;4989283;28;20106;-68
2021/11/17 12:42:46;;;;;;;11.98;4.65;;;;;;;;;;4993782;28;20033;-67
2021/11/17 12:45:14;;;;;;;20.60;6.85;;;;;;;;;;4989590;28;20034;-67
2021/11/17 12:47:46;;;;;;;16.60;7.30;;;;;;;;;;4993828;28;20414;-67
2021/11/17 12:50:16;;;;;;;19.10;7.38;;;;;;;;;;4992563;28;20019;-67
2021/11/17 12:52:43;;;;;;;17.30;7.88;;;;;;;;;;4996198;28;20026;-66
2021/11/17 12:55:08;;;;;;;21.05;10.68;;;;;;;;;;4991411;28;20352;-65
2021/11/17 12:57:40;;;;;;;26.97;9.10;;;;;;;;;;4993665;28;20233;-65
2021/11/17 13:00:26;;;;;;;19.10;8.23;;;;;;;;;;4991757;28;20658;-66
2021/11/17 13:02:55;;;;;;;20.38;8.55;;;;;;;;;;4985195;28;20038;-66
2021/11/17 13:05:20;;;;;;;19.60;8.02;;;;;;;;;;4993744;28;20026;-67
2021/11/17 13:07:47;;;;;;;20.10;8.02;;;;;;;;;;4993207;28;20024;-66
2021/11/17 13:10:23;;;;;;;17.92;7.40;;;;;;;;;;4983282;28;20383;-69
2021/11/17 13:12:59;;;;;;;17.20;8.20;;;;;;;;;;4985694;28;20367;-66
2021/11/17 13:15:24;;;;;;;46.33;9.95;;;;;;;;;;4991936;28;20046;-68
2021/11/17 13:17:49;;;;;;;20.52;8.55;;;;;;;;;;4974136;28;20507;-67
2021/11/17 13:20:14;;;;;;;22.73;9.50;;;;;;;;;;4989151;28;20495;-67
2021/11/17 13:22:42;;;;;;;24.88;8.93;;;;;;;;;;4993018;28;20022;-67
2021/11/17 13:25:10;;;;;;;21.45;9.43;;;;;;;;;;4992191;28;20026;-67
2021/11/17 13:27:40;;;;;;;29.15;9.25;;;;;;;;;;4990552;28;20081;-66
2021/11/17 13:30:05;;;;;;;;;;;;;;;;;;4989998;28;20022;-67
2021/11/17 13:32:34;;;;;;;26.70;8.82;;;;;;;;;;4991952;28;19910;-68
2021/11/17 13:35:00;;;;;;;23.02;8.57;;;;;;;;;;4979403;28;20022;-67
2021/11/17 13:37:28;;;;;;;16.85;8.13;;;;;;;;;;4977486;28;20027;-67
2021/11/17 13:39:55;;;;;;;24.52;8.63;;;;;;;;;;4978837;28;20048;-67
2021/11/17 13:42:21;;;;;;;27.95;8.52;;;;;;;;;;4982409;28;20023;-66
2021/11/17 13:44:46;;;;;;;25.38;9.65;;;;;;;;;;4986735;28;20018;-66
2021/11/17 13:47:13;;;;;;;21.20;9.37;;;;;;;;;;4990410;28;20395;-66
2021/11/17 13:49:40;;;;;;;21.40;9.13;;;;;;;;;;4992606;28;20268;-68
2021/11/17 13:52:06;;;;;;;27.60;9.70;;;;;;;;;;4991687;28;20022;-67
2021/11/17 13:54:31;;;;;;;24.65;9.35;;;;;;;;;;4983137;28;20364;-69
2021/11/17 13:56:57;;;;;;;22.70;8.70;;;;;;;;;;4991584;28;20022;-67
2021/11/17 13:59:22;;;;;;;21.67;9.02;;;;;;;;;;4991892;28;20563;-67
2021/11/17 14:01:48;;;;;;;20.42;8.77;;;;;;;;;;4991931;28;20495;-69
2021/11/17 14:04:13;;;;;;;25.52;8.90;;;;;;;;;;4991835;28;20471;-67
2021/11/17 14:06:40;;;;;;;27.20;10.23;;;;;;;;;;4992034;28;20106;-66
2021/11/17 14:09:05;;;;;;;23.20;10.20;;;;;;;;;;4991758;28;20101;-67
2021/11/17 14:11:33;;;;;;;24.30;8.77;;;;;;;;;;4992104;28;20428;-66
2021/11/17 14:13:59;;;;;;;21.60;9.10;;;;;;;;;;4987961;28;20160;-67
2021/11/17 14:16:25;;;;;;;22.75;9.38;;;;;;;;;;4987760;28;20018;-67
2021/11/17 14:18:50;;;;;;;24.45;9.75;;;;;;;;;;4991538;28;20116;-66
2021/11/17 14:21:15;;;;;;;22.50;10.40;;;;;;;;;;4983126;28;20027;-67
2021/11/17 14:23:41;;;;;;;23.20;10.43;;;;;;;;;;4988643;28;20040;-67
2021/11/17 14:26:08;;;;;;;24.38;9.38;;;;;;;;;;4986584;28;20418;-66
2021/11/17 14:28:35;;;;;;;17.05;7.38;;;;;;;;;;5003961;28;20029;-67
2021/11/17 14:31:11;;;;;;;23.25;9.40;;;;;;;;;;4997043;28;20101;-66
2021/11/17 14:33:37;;;;;;;30.13;10.45;;;;;;;;;;4980268;28;20049;-68
2021/11/17 14:36:07;;;;;;;28.45;10.07;;;;;;;;;;4983663;28;20507;-66
2021/11/17 14:38:33;;;;;;;32.92;10.60;;;;;;;;;;4991761;28;20081;-67
2021/11/17 14:40:59;;;;;;;33.20;11.40;;;;;;;;;;4990560;28;20061;-66
2021/11/17 14:43:24;;;;;;;29.58;10.60;;;;;;;;;;4982043;28;20018;-67
2021/11/17 14:45:50;;;;;;;39.63;12.90;;;;;;;;;;4989026;28;20076;-66
2021/11/17 14:48:16;;;;;;;33.80;13.07;;;;;;;;;;4991195;28;20069;-66
2021/11/17 14:50:43;;;;;;;38.10;14.40;;;;;;;;;;4990081;28;20509;-67
2021/11/17 14:53:09;;;;;;;34.13;13.15;;;;;;;;;;4972425;28;20030;-66
2021/11/17 14:55:34;;;;;;;36.90;13.25;;;;;;;;;;4979924;28;20023;-67
2021/11/17 14:57:59;;;;;;;38.60;13.23;;;;;;;;;;4991478;28;20034;-68
2021/11/17 15:00:31;;;;;;;67.47;19.13;;;;;;;;;;4990564;28;20270;-66
2021/11/17 15:02:56;;;;;;;73.47;22.25;;;;;;;;;;4985832;28;20258;-67
2021/11/17 15:05:23;;;;;;;69.30;20.60;;;;;;;;;;4975385;28;20037;-67
2021/11/17 15:07:49;;;;;;;89.88;24.55;;;;;;;;;;4983729;28;20026;-66
2021/11/17 15:10:15;;;;;;;71.55;25.50;;;;;;;;;;4990185;28;21820;-68
2021/11/17 15:12:41;;;;;;;82.55;24.65;;;;;;;;;;4988820;28;20030;-66
2021/11/17 15:15:09;;;;;;;88.13;26.75;;;;;;;;;;4973414;28;20054;-67
2021/11/17 15:17:35;;;;;;;72.22;24.30;;;;;;;;;;4985207;28;20026;-67
2021/11/17 15:20:00;;;;;;;79.80;23.48;;;;;;;;;;4988862;28;20436;-68
2021/11/17 15:22:27;;;;;;;98.05;28.00;;;;;;;;;;4982313;28;20483;-67
2021/11/17 15:24:52;;;;;;;99.45;29.10;;;;;;;;;;4974146;28;20023;-69
2021/11/17 15:27:24;;;;;;;99.60;29.50;;;;;;;;;;4989047;28;20343;-67
2021/11/17 15:29:49;;;;;;;96.22;31.65;;;;;;;;;;4991125;28;20265;-67
2021/11/17 15:32:18;;;;;;;103.47;35.27;;;;;;;;;;4981629;28;20031;-67
2021/11/17 15:34:43;;;;;;;98.18;32.58;;;;;;;;;;4986797;28;20320;-67
2021/11/17 15:37:08;;;;;;;102.25;33.03;;;;;;;;;;4987862;28;20392;-66
2021/11/17 15:39:33;;;;;;;97.37;35.10;;;;;;;;;;4990210;28;20038;-67
2021/11/17 15:41:59;;;;;;;101.93;30.10;;;;;;;;;;4989148;28;20280;-66
2021/11/17 15:44:24;;;;;;;106.25;35.47;;;;;;;;;;4990495;28;20042;-68
2021/11/17 15:46:51;;;;;;;103.35;31.98;;;;;;;;;;4985326;28;20049;-68
2021/11/17 15:49:16;;;;;;;92.00;32.17;;;;;;;;;;4986250;28;20099;-67
2021/11/17 15:51:41;;;;;;;97.67;29.20;;;;;;;;;;4991992;28;20030;-66
2021/11/17 15:54:07;;;;;;;100.82;28.75;;;;;;;;;;4994157;28;20631;-67
2021/11/17 15:56:33;;;;;;;98.35;28.70;;;;;;;;;;4993286;28;20109;-67
2021/11/17 15:58:58;;;;;;;82.43;28.05;;;;;;;;;;4993816;28;20105;-67
2021/11/17 16:01:23;;;;;;;94.00;29.45;;;;;;;;;;4993119;28;20034;-67
2021/11/17 16:03:51;;;;;;;81.00;27.35;;;;;;;;;;4996076;28;20112;-67
2021/11/17 16:06:17;;;;;;;86.47;31.75;;;;;;;;;;4992202;28;20104;-67
2021/11/17 16:08:42;;;;;;;94.65;31.58;;;;;;;;;;4993813;28;20053;-68
2021/11/17 16:11:07;;;;;;;93.55;29.30;;;;;;;;;;4992717;28;20025;-68
2021/11/17 16:13:34;;;;;;;90.80;28.67;;;;;;;;;;4993399;28;20026;-66
2021/11/17 16:15:59;;;;;;;98.35;30.45;;;;;;;;;;4981365;28;20270;-67
2021/11/17 16:18:24;;;;;;;99.53;34.67;;;;;;;;;;4993173;28;20078;-68
2021/11/17 16:20:53;;;;;;;85.35;27.67;;;;;;;;;;4982791;28;20094;-66
2021/11/17 16:25:47;;;;;;;95.75;30.58;;;;;;;;;;4996048;28;20061;-67
2021/11/17 16:28:20;;;;;;;96.63;29.08;;;;;;;;;;4987990;28;20038;-67
2021/11/17 16:30:46;;;;;;;93.68;27.40;;;;;;;;;;4973658;28;20023;-67
2021/11/17 16:33:12;;;;;;;83.55;27.42;;;;;;;;;;4993033;28;20109;-68
2021/11/17 16:35:37;;;;;;;94.63;30.02;;;;;;;;;;4993907;28;20037;-68
2021/11/17 16:38:05;;;;;;;76.95;27.35;;;;;;;;;;4993444;28;20050;-67
2021/11/17 16:40:31;;;;;;;88.18;28.70;;;;;;;;;;4993586;28;20027;-66
2021/11/17 16:42:56;;;;;;;92.45;28.40;;;;;;;;;;4992527;28;20482;-67
2021/11/17 16:45:22;;;;;;;81.47;27.48;;;;;;;;;;4993277;28;20038;-69
2021/11/17 16:47:48;;;;;;;68.75;25.88;;;;;;;;;;4981412;28;20500;-66
2021/11/17 16:50:14;;;;;;;73.85;25.33;;;;;;;;;;4992183;28;20629;-66
2021/11/17 16:52:41;;;;;;;77.60;27.38;;;;;;;;;;4992399;28;20069;-67
2021/11/17 16:55:14;;;;;;;76.22;27.13;;;;;;;;;;4993404;28;20018;-67
2021/11/17 16:57:40;;;;;;;78.95;28.00;;;;;;;;;;4993706;28;20049;-67
2021/11/17 17:00:08;;;;;;;80.70;26.45;;;;;;;;;;4991387;28;20487;-67
2021/11/17 17:02:34;;;;;;;77.70;25.30;;;;;;;;;;4991684;28;20034;-68
2021/11/17 17:04:59;;;;;;;84.82;29.45;;;;;;;;;;4993326;28;20022;-68
2021/11/17 17:07:25;;;;;;;80.00;27.38;;;;;;;;;;4993584;28;20029;-69
2021/11/17 17:09:51;;;;;;;89.90;26.90;;;;;;;;;;4993097;28;20395;-67
2021/11/17 17:12:22;;;;;;;81.78;29.58;;;;;;;;;;4991581;28;20467;-67
2021/11/17 17:14:48;;;;;;;79.72;25.73;;;;;;;;;;4993091;28;20026;-68
2021/11/17 17:17:13;;;;;;;89.90;28.73;;;;;;;;;;4992879;28;20663;-67